createdAt,value
2019-05-25T00:00:49.181Z,0.00
2019-05-25T00:01:49.357Z,0.00
2019-05-25T00:02:49.561Z,0.00
2019-05-25T00:03:49.731Z,0.00
2019-05-25T00:04:49.916Z,0.00
2019-05-25T00:05:50.110Z,0.00
2019-05-25T00:06:50.199Z,0.00
2019-05-25T00:07:50.421Z,0.00
2019-05-25T00:08:50.631Z,0.00
2019-05-25T00:09:50.790Z,0.00
2019-05-25T00:10:51.006Z,0.00
2019-05-25T00:11:51.203Z,0.00
2019-05-25T00:12:51.384Z,0.00
2019-05-25T00:13:51.566Z,0.00
2019-05-25T00:14:51.765Z,0.00
2019-05-25T00:15:51.978Z,0.00
2019-05-25T00:16:52.166Z,0.00
2019-05-25T00:17:52.382Z,0.00
2019-05-25T00:18:52.451Z,0.00
2019-05-25T00:19:52.639Z,0.00
2019-05-25T00:20:52.882Z,0.00
2019-05-25T00:21:53.042Z,0.00
2019-05-25T00:22:53.238Z,0.00
2019-05-25T00:23:53.432Z,0.00
2019-05-25T00:24:53.634Z,0.00
2019-05-25T00:25:53.893Z,0.00
2019-05-25T00:26:54.014Z,0.00
2019-05-25T00:27:54.211Z,0.00
2019-05-25T00:28:54.411Z,0.00
2019-05-25T00:29:54.601Z,0.00
2019-05-25T00:30:54.784Z,0.00
2019-05-25T00:31:54.971Z,0.00
2019-05-25T00:32:55.179Z,0.00
2019-05-25T00:33:55.362Z,0.00
2019-05-25T00:34:55.545Z,0.00
2019-05-25T00:35:55.732Z,0.00
2019-05-25T00:36:55.927Z,0.00
2019-05-25T00:37:56.098Z,0.00
2019-05-25T00:38:56.305Z,0.00
2019-05-25T00:39:56.481Z,0.00
2019-05-25T00:40:56.683Z,0.00
2019-05-25T00:41:56.862Z,0.00
2019-05-25T00:42:57.046Z,0.00
2019-05-25T00:43:57.238Z,0.00
2019-05-25T00:44:57.423Z,0.00
2019-05-25T00:45:57.630Z,0.00
2019-05-25T00:46:57.805Z,0.00
2019-05-25T00:47:57.988Z,0.00
2019-05-25T00:48:58.175Z,0.00
2019-05-25T00:49:58.345Z,0.00
2019-05-25T00:50:58.517Z,0.00
2019-05-25T00:51:58.704Z,0.00
2019-05-25T00:52:58.875Z,0.00
2019-05-25T00:53:59.114Z,0.00
2019-05-25T00:54:59.170Z,0.00
2019-05-25T00:55:59.388Z,0.00
2019-05-25T00:56:59.448Z,0.00
2019-05-25T00:57:59.644Z,0.00
2019-05-25T00:58:59.857Z,0.00
2019-05-25T01:00:00.063Z,0.00
2019-05-25T01:01:00.250Z,0.00
2019-05-25T01:02:00.416Z,0.00
2019-05-25T01:03:00.642Z,0.00
2019-05-25T01:04:00.706Z,0.00
2019-05-25T01:05:00.935Z,0.00
2019-05-25T01:06:01.156Z,0.00
2019-05-25T01:07:01.216Z,0.00
2019-05-25T01:08:01.412Z,0.00
2019-05-25T01:09:01.601Z,0.00
2019-05-25T01:10:01.866Z,0.00
2019-05-25T01:11:01.982Z,0.00
2019-05-25T01:12:02.183Z,0.00
2019-05-25T01:13:02.355Z,0.00
2019-05-25T01:14:02.546Z,0.00
2019-05-25T01:15:02.727Z,0.00
2019-05-25T01:16:02.951Z,0.00
2019-05-25T01:17:03.076Z,0.00
2019-05-25T01:18:03.137Z,0.00
2019-05-25T01:19:03.326Z,0.00
2019-05-25T01:20:03.576Z,0.00
2019-05-25T01:21:03.699Z,0.00
2019-05-25T01:22:03.896Z,0.00
2019-05-25T01:23:04.097Z,0.00
2019-05-25T01:24:04.298Z,0.00
2019-05-25T01:25:04.463Z,0.00
2019-05-25T01:26:04.644Z,0.00
2019-05-25T01:27:04.855Z,0.00
2019-05-25T01:28:05.057Z,0.00
2019-05-25T01:29:05.238Z,0.00
2019-05-25T01:30:05.451Z,0.00
2019-05-25T01:31:05.658Z,0.00
2019-05-25T01:32:05.843Z,0.00
2019-05-25T01:33:06.026Z,0.00
2019-05-25T01:34:06.220Z,0.00
2019-05-25T01:35:06.398Z,0.00
2019-05-25T01:36:06.586Z,0.00
2019-05-25T01:37:06.773Z,0.00
2019-05-25T01:38:06.983Z,0.00
2019-05-25T01:39:07.189Z,0.00
2019-05-25T01:40:07.412Z,0.00
2019-05-25T01:41:07.469Z,0.00
2019-05-25T01:42:07.689Z,0.00
2019-05-25T01:43:07.885Z,0.00
2019-05-25T01:44:08.126Z,0.00
2019-05-25T01:45:08.204Z,0.00
2019-05-25T01:46:08.392Z,0.00
2019-05-25T01:47:08.574Z,0.00
2019-05-25T01:48:08.761Z,0.00
2019-05-25T01:49:08.991Z,0.00
2019-05-25T01:50:09.204Z,0.00
2019-05-25T01:51:09.322Z,0.00
2019-05-25T01:52:09.481Z,0.00
2019-05-25T01:53:11.620Z,0.00
2019-05-25T01:54:09.865Z,0.00
2019-05-25T01:55:10.059Z,0.00
2019-05-25T01:56:10.232Z,0.00
2019-05-25T01:57:10.414Z,0.00
2019-05-25T01:58:10.635Z,0.00
2019-05-25T01:59:10.727Z,0.00
2019-05-25T02:00:10.897Z,0.00
2019-05-25T02:01:11.072Z,0.00
2019-05-25T02:02:11.266Z,0.00
2019-05-25T02:03:11.476Z,0.00
2019-05-25T02:04:11.686Z,0.00
2019-05-25T02:05:11.793Z,0.00
2019-05-25T02:06:11.991Z,0.00
2019-05-25T02:07:12.195Z,0.00
2019-05-25T02:08:12.399Z,0.00
2019-05-25T02:09:12.607Z,0.00
2019-05-25T02:10:12.803Z,0.00
2019-05-25T02:11:12.995Z,0.00
2019-05-25T02:12:13.207Z,0.00
2019-05-25T02:13:13.422Z,0.00
2019-05-25T02:14:13.634Z,0.00
2019-05-25T02:15:13.817Z,0.00
2019-05-25T02:16:14.055Z,0.00
2019-05-25T02:17:14.111Z,0.00
2019-05-25T02:18:14.293Z,0.00
2019-05-25T02:19:14.486Z,0.00
2019-05-25T02:20:14.677Z,0.00
2019-05-25T02:21:14.881Z,0.00
2019-05-25T02:22:15.081Z,0.00
2019-05-25T02:23:15.262Z,0.00
2019-05-25T02:24:15.454Z,0.00
2019-05-25T02:25:18.300Z,0.00
2019-05-25T02:26:15.820Z,0.00
2019-05-25T02:27:16.098Z,0.00
2019-05-25T02:28:16.152Z,0.00
2019-05-25T02:29:16.388Z,0.00
2019-05-25T02:30:16.455Z,0.00
2019-05-25T02:31:16.641Z,0.00
2019-05-25T02:32:16.854Z,0.00
2019-05-25T02:33:17.067Z,0.00
2019-05-25T02:34:17.270Z,0.00
2019-05-25T02:35:17.450Z,0.00
2019-05-25T02:36:20.620Z,0.00
2019-05-25T02:37:17.721Z,0.00
2019-05-25T02:38:17.920Z,0.00
2019-05-25T02:39:18.099Z,0.00
2019-05-25T02:40:18.275Z,0.00
2019-05-25T02:41:18.480Z,0.00
2019-05-25T02:42:18.672Z,0.00
2019-05-25T02:43:18.844Z,0.00
2019-05-25T02:44:19.010Z,0.00
2019-05-25T02:45:19.213Z,4.00
2019-05-25T02:46:19.399Z,4.00
2019-05-25T02:47:19.602Z,4.00
2019-05-25T02:48:19.790Z,4.00
2019-05-25T02:49:19.881Z,0.00
2019-05-25T02:50:20.087Z,4.00
2019-05-25T02:51:20.262Z,4.00
2019-05-25T02:52:20.492Z,4.00
2019-05-25T02:53:20.673Z,4.00
2019-05-25T02:54:20.864Z,4.00
2019-05-25T02:55:33.647Z,8.00
2019-05-25T02:56:21.263Z,4.00
2019-05-25T02:57:21.463Z,8.00
2019-05-25T02:58:21.706Z,8.00
2019-05-25T02:59:21.829Z,8.00
2019-05-25T03:00:22.049Z,12.00
2019-05-25T03:01:22.228Z,12.00
2019-05-25T03:02:22.482Z,16.00
2019-05-25T03:03:22.615Z,16.00
2019-05-25T03:04:22.826Z,20.00
2019-05-25T03:05:22.920Z,24.00
2019-05-25T03:06:23.127Z,24.00
2019-05-25T03:07:23.320Z,28.00
2019-05-25T03:08:23.535Z,32.00
2019-05-25T03:09:23.735Z,36.00
2019-05-25T03:10:23.912Z,40.00
2019-05-25T03:11:24.110Z,44.00
2019-05-25T03:12:24.293Z,52.00
2019-05-25T03:13:24.483Z,56.00
2019-05-25T03:14:24.675Z,60.00
2019-05-25T03:15:24.859Z,64.00
2019-05-25T03:16:25.041Z,72.00
2019-05-25T03:17:25.254Z,80.00
2019-05-25T03:18:25.448Z,92.00
2019-05-25T03:19:25.672Z,100.00
2019-05-25T03:20:25.877Z,108.00
2019-05-25T03:21:26.084Z,120.00
2019-05-25T03:22:26.274Z,132.00
2019-05-25T03:23:26.485Z,144.00
2019-05-25T03:24:26.646Z,156.00
2019-05-25T03:25:26.826Z,172.00
2019-05-25T03:26:27.007Z,188.00
2019-05-25T03:27:27.194Z,204.00
2019-05-25T03:28:27.405Z,224.00
2019-05-25T03:29:27.589Z,240.00
2019-05-25T03:30:27.775Z,264.00
2019-05-25T03:31:27.940Z,280.00
2019-05-25T03:32:28.161Z,296.00
2019-05-25T03:33:28.372Z,316.00
2019-05-25T03:34:28.542Z,344.00
2019-05-25T03:35:28.762Z,364.00
2019-05-25T03:36:28.950Z,388.00
2019-05-25T03:37:29.144Z,408.00
2019-05-25T03:38:29.334Z,424.00
2019-05-25T03:39:29.526Z,440.00
2019-05-25T03:40:29.709Z,452.00
2019-05-25T03:41:29.916Z,472.00
2019-05-25T03:42:30.092Z,492.00
2019-05-25T03:43:30.294Z,520.00
2019-05-25T03:44:30.482Z,544.00
2019-05-25T03:45:30.668Z,568.00
2019-05-25T03:46:30.852Z,604.00
2019-05-25T03:47:31.036Z,644.00
2019-05-25T03:48:31.194Z,696.00
2019-05-25T03:49:31.357Z,748.00
2019-05-25T03:50:31.535Z,796.00
2019-05-25T03:51:31.740Z,848.00
2019-05-25T03:52:31.934Z,892.00
2019-05-25T03:53:32.123Z,936.00
2019-05-25T03:54:32.306Z,980.00
2019-05-25T03:55:32.512Z,1020.00
2019-05-25T03:56:32.665Z,1060.00
2019-05-25T03:57:32.843Z,1108.00
2019-05-25T03:58:33.020Z,1156.00
2019-05-25T03:59:33.190Z,1200.00
2019-05-25T04:00:33.380Z,1236.00
2019-05-25T04:01:33.556Z,1264.00
2019-05-25T04:02:33.738Z,1284.00
2019-05-25T04:03:33.914Z,1296.00
2019-05-25T04:04:34.125Z,1304.00
2019-05-25T04:05:34.206Z,1320.00
2019-05-25T04:06:34.388Z,1328.00
2019-05-25T04:07:34.564Z,1328.00
2019-05-25T04:08:34.742Z,1316.00
2019-05-25T04:09:34.910Z,1304.00
2019-05-25T04:10:38.180Z,1296.00
2019-05-25T04:11:35.287Z,1292.00
2019-05-25T04:12:35.466Z,1304.00
2019-05-25T04:13:35.881Z,1332.00
2019-05-25T04:14:35.800Z,1368.00
2019-05-25T04:15:36.058Z,1404.00
2019-05-25T04:16:36.230Z,1436.00
2019-05-25T04:17:36.400Z,1460.00
2019-05-25T04:18:36.592Z,1480.00
2019-05-25T04:19:36.792Z,1496.00
2019-05-25T04:20:36.971Z,1520.00
2019-05-25T04:21:37.230Z,1536.00
2019-05-25T04:22:37.333Z,1556.00
2019-05-25T04:23:37.515Z,1572.00
2019-05-25T04:24:37.725Z,1588.00
2019-05-25T04:25:37.942Z,1600.00
2019-05-25T04:26:38.042Z,1608.00
2019-05-25T04:27:38.232Z,1620.00
2019-05-25T04:28:38.422Z,1616.00
2019-05-25T04:29:38.648Z,1592.00
2019-05-25T04:30:38.809Z,1568.00
2019-05-25T04:31:38.976Z,1556.00
2019-05-25T04:32:39.150Z,1564.00
2019-05-25T04:33:39.329Z,1584.00
2019-05-25T04:34:39.528Z,1588.00
2019-05-25T04:35:39.718Z,1588.00
2019-05-25T04:36:40.152Z,1584.00
2019-05-25T04:37:40.050Z,1596.00
2019-05-25T04:38:40.419Z,1576.00
2019-05-25T04:39:40.340Z,1512.00
2019-05-25T04:40:40.535Z,1472.00
2019-05-25T04:41:40.725Z,1480.00
2019-05-25T04:42:40.911Z,1548.00
2019-05-25T04:43:41.100Z,1660.00
2019-05-25T04:44:41.281Z,1784.00
2019-05-25T04:45:41.445Z,1916.00
2019-05-25T04:46:41.641Z,2052.00
2019-05-25T04:47:41.840Z,2200.00
2019-05-25T04:48:42.043Z,2316.00
2019-05-25T04:49:42.220Z,2440.00
2019-05-25T04:50:42.448Z,2604.00
2019-05-25T04:51:42.518Z,2728.00
2019-05-25T04:52:42.756Z,2816.00
2019-05-25T04:53:42.824Z,2888.00
2019-05-25T04:54:43.204Z,2956.00
2019-05-25T04:55:43.198Z,3068.00
2019-05-25T04:56:43.396Z,3180.00
2019-05-25T04:57:43.606Z,3260.00
2019-05-25T04:58:43.860Z,3348.00
2019-05-25T04:59:44.198Z,3460.00
2019-05-25T05:00:44.132Z,3548.00
2019-05-25T05:01:44.341Z,3632.00
2019-05-25T05:02:44.538Z,3712.00
2019-05-25T05:03:44.706Z,3784.00
2019-05-25T05:04:44.909Z,3852.00
2019-05-25T05:05:45.073Z,3896.00
2019-05-25T05:06:45.270Z,3924.00
2019-05-25T05:07:45.468Z,3952.00
2019-05-25T05:08:45.649Z,3976.00
2019-05-25T05:10:01.179Z,4000.00
2019-05-25T05:10:46.041Z,4012.00
2019-05-25T05:11:46.252Z,4036.00
2019-05-25T05:12:46.421Z,4020.00
2019-05-25T05:13:46.642Z,4008.00
2019-05-25T05:14:46.934Z,4112.00
2019-05-25T05:15:47.025Z,4344.00
2019-05-25T05:16:47.170Z,4564.00
2019-05-25T05:17:47.349Z,4716.00
2019-05-25T05:18:47.513Z,4824.00
2019-05-25T05:19:47.902Z,4940.00
2019-05-25T05:20:48.867Z,5052.00
2019-05-25T05:21:48.277Z,5184.00
2019-05-25T05:22:48.217Z,5280.00
2019-05-25T05:23:48.380Z,5452.00
2019-05-25T05:24:48.572Z,5592.00
2019-05-25T05:25:48.772Z,5796.00
2019-05-25T05:26:55.956Z,6016.00
2019-05-25T05:27:51.592Z,6168.00
2019-05-25T05:28:49.763Z,6208.00
2019-05-25T05:29:49.819Z,6248.00
2019-05-25T05:30:50.060Z,6300.00
2019-05-25T05:31:50.102Z,6316.00
2019-05-25T05:32:50.206Z,6320.00
2019-05-25T05:33:50.315Z,6284.00
2019-05-25T05:34:50.587Z,6152.00
2019-05-25T05:35:50.757Z,6012.00
2019-05-25T05:36:50.845Z,5916.00
2019-05-25T05:37:51.405Z,5820.00
2019-05-25T05:38:51.319Z,5776.00
2019-05-25T05:39:51.434Z,5716.00
2019-05-25T05:40:51.567Z,5652.00
2019-05-25T05:41:51.661Z,5568.00
2019-05-25T05:42:51.793Z,5448.00
2019-05-25T05:43:51.988Z,5380.00
2019-05-25T05:44:51.782Z,5316.00
2019-05-25T05:45:51.843Z,5280.00
2019-05-25T05:46:52.034Z,5252.00
2019-05-25T05:47:52.214Z,5264.00
2019-05-25T05:48:52.416Z,5400.00
2019-05-25T05:49:52.617Z,5508.00
2019-05-25T05:50:52.811Z,5524.00
2019-05-25T05:51:53.087Z,5544.00
2019-05-25T05:52:53.125Z,5740.00
2019-05-25T05:53:53.310Z,5808.00
2019-05-25T05:54:53.498Z,6016.00
2019-05-25T05:55:53.699Z,6324.00
2019-05-25T05:56:53.873Z,6668.00
2019-05-25T05:57:54.301Z,6868.00
2019-05-25T05:58:54.152Z,7160.00
2019-05-25T05:59:54.380Z,7588.00
2019-05-25T06:00:54.610Z,7980.00
2019-05-25T06:01:54.658Z,8300.00
2019-05-25T06:02:54.887Z,8556.00
2019-05-25T06:03:55.088Z,8632.00
2019-05-25T06:04:55.293Z,8516.00
2019-05-25T06:05:55.477Z,8364.00
2019-05-25T06:06:55.670Z,8120.00
2019-05-25T06:07:55.884Z,7624.00
2019-05-25T06:08:56.060Z,7328.00
2019-05-25T06:09:56.248Z,7364.00
2019-05-25T06:10:56.445Z,7272.00
2019-05-25T06:11:56.665Z,7448.00
2019-05-25T06:12:56.834Z,7384.00
2019-05-25T06:13:57.034Z,6872.00
2019-05-25T06:14:57.201Z,6324.00
2019-05-25T06:15:57.383Z,5832.00
2019-05-25T06:16:57.578Z,5332.00
2019-05-25T06:17:57.797Z,4960.00
2019-05-25T06:18:57.982Z,4708.00
2019-05-25T06:19:58.152Z,4640.00
2019-05-25T06:20:58.386Z,4772.00
2019-05-25T06:21:58.566Z,5040.00
2019-05-25T06:22:58.737Z,5304.00
2019-05-25T06:23:58.945Z,5584.00
2019-05-25T06:24:59.147Z,5924.00
2019-05-25T06:25:59.330Z,6284.00
2019-05-25T06:26:59.513Z,6584.00
2019-05-25T06:27:59.693Z,6828.00
2019-05-25T06:28:59.968Z,6916.00
2019-05-25T06:30:00.036Z,6888.00
2019-05-25T06:31:00.195Z,6924.00
2019-05-25T06:32:00.367Z,7096.00
2019-05-25T06:33:00.542Z,7444.00
2019-05-25T06:34:00.710Z,7748.00
2019-05-25T06:35:00.877Z,8116.00
2019-05-25T06:36:01.078Z,8300.00
2019-05-25T06:37:01.166Z,8424.00
2019-05-25T06:38:01.350Z,8612.00
2019-05-25T06:39:01.564Z,8784.00
2019-05-25T06:40:01.756Z,8964.00
2019-05-25T06:41:01.937Z,9212.00
2019-05-25T06:42:02.223Z,9360.00
2019-05-25T06:43:02.350Z,9420.00
2019-05-25T06:44:02.494Z,9504.00
2019-05-25T06:45:02.999Z,9804.00
2019-05-25T06:46:02.798Z,10004.00
2019-05-25T06:47:02.994Z,10304.00
2019-05-25T06:48:03.164Z,10388.00
2019-05-25T06:49:03.355Z,10208.00
2019-05-25T06:50:03.551Z,9880.00
2019-05-25T06:51:03.735Z,10000.00
2019-05-25T06:52:03.945Z,10256.00
2019-05-25T06:53:04.111Z,10280.00
2019-05-25T06:54:04.294Z,10076.00
2019-05-25T06:55:04.481Z,9776.00
2019-05-25T06:56:04.609Z,9660.00
2019-05-25T06:57:04.802Z,9500.00
2019-05-25T06:58:05.058Z,9340.00
2019-05-25T06:59:05.118Z,9204.00
2019-05-25T07:00:05.312Z,9036.00
2019-05-25T07:01:05.564Z,8928.00
2019-05-25T07:02:05.653Z,8868.00
2019-05-25T07:03:05.848Z,8872.00
2019-05-25T07:04:06.045Z,8856.00
2019-05-25T07:05:06.242Z,8876.00
2019-05-25T07:06:06.433Z,8736.00
2019-05-25T07:07:06.597Z,8620.00
2019-05-25T07:08:06.810Z,8648.00
2019-05-25T07:09:06.989Z,8744.00
2019-05-25T07:10:07.161Z,8956.00
2019-05-25T07:11:07.403Z,9156.00
2019-05-25T07:12:07.590Z,9440.00
2019-05-25T07:13:07.810Z,9684.00
2019-05-25T07:14:08.012Z,10060.00
2019-05-25T07:15:08.290Z,10616.00
2019-05-25T07:16:08.512Z,10948.00
2019-05-25T07:17:08.541Z,11332.00
2019-05-25T07:18:08.770Z,11340.00
2019-05-25T07:19:08.947Z,12220.00
2019-05-25T07:20:09.489Z,13520.00
2019-05-25T07:21:09.306Z,21440.00
2019-05-25T07:22:09.471Z,34400.00
2019-05-25T07:23:09.657Z,50752.00
2019-05-25T07:24:09.869Z,67264.00
2019-05-25T07:25:10.429Z,75072.00
2019-05-25T07:26:10.221Z,72608.00
2019-05-25T07:27:10.895Z,74944.00
2019-05-25T07:28:10.565Z,80512.00
2019-05-25T07:29:10.999Z,84352.00
2019-05-25T07:30:11.052Z,85600.00
2019-05-25T07:31:11.223Z,86816.00
2019-05-25T07:32:11.222Z,89696.00
2019-05-25T07:33:11.456Z,92096.00
2019-05-25T07:34:11.869Z,92800.00
2019-05-25T07:35:11.848Z,92000.00
2019-05-25T07:36:12.059Z,89280.00
2019-05-25T07:37:12.211Z,91552.00
2019-05-25T07:38:12.504Z,91872.00
2019-05-25T07:39:12.797Z,91168.00
2019-05-25T07:40:12.687Z,92000.00
2019-05-25T07:41:12.837Z,91616.00
2019-05-25T07:42:13.054Z,87232.00
2019-05-25T07:43:13.232Z,77856.00
2019-05-25T07:44:13.476Z,64928.00
2019-05-25T07:45:13.610Z,58816.00
2019-05-25T07:46:16.936Z,50528.00
2019-05-25T07:47:14.010Z,40032.00
2019-05-25T07:48:15.305Z,31264.00
2019-05-25T07:49:14.447Z,27584.00
2019-05-25T07:50:14.502Z,25792.00
2019-05-25T07:51:16.073Z,24800.00
2019-05-25T07:52:15.578Z,24576.00
2019-05-25T07:53:15.533Z,25664.00
2019-05-25T07:54:15.692Z,27200.00
2019-05-25T07:55:15.375Z,27424.00
2019-05-25T07:56:15.622Z,27104.00
2019-05-25T07:57:15.783Z,28064.00
2019-05-25T07:58:18.415Z,27136.00
2019-05-25T07:59:16.188Z,26112.00
2019-05-25T08:00:16.509Z,24768.00
2019-05-25T08:01:16.989Z,24160.00
2019-05-25T08:02:16.751Z,24384.00
2019-05-25T08:03:17.079Z,23744.00
2019-05-25T08:04:17.184Z,24160.00
2019-05-25T08:05:17.258Z,29536.00
2019-05-25T08:06:17.522Z,39776.00
2019-05-25T08:07:17.629Z,55232.00
2019-05-25T08:08:17.804Z,62784.00
2019-05-25T08:09:17.985Z,76544.00
2019-05-25T08:10:18.174Z,87552.00
2019-05-25T08:11:18.385Z,94080.00
2019-05-25T08:12:18.548Z,90912.00
2019-05-25T08:13:18.769Z,88576.00
2019-05-25T08:14:18.936Z,91296.00
2019-05-25T08:15:19.149Z,91520.00
2019-05-25T08:16:19.328Z,87072.00
2019-05-25T08:17:19.506Z,82912.00
2019-05-25T08:18:19.695Z,84704.00
2019-05-25T08:19:19.876Z,83136.00
2019-05-25T08:20:20.088Z,87008.00
2019-05-25T08:21:20.179Z,87936.00
2019-05-25T08:22:20.397Z,78688.00
2019-05-25T08:23:20.575Z,74048.00
2019-05-25T08:24:21.057Z,76288.00
2019-05-25T08:25:21.030Z,75680.00
2019-05-25T08:26:21.217Z,77472.00
2019-05-25T08:27:21.409Z,81120.00
2019-05-25T08:28:32.271Z,80864.00
2019-05-25T08:29:21.767Z,80000.00
2019-05-25T08:30:21.940Z,78656.00
2019-05-25T08:31:22.130Z,80096.00
2019-05-25T08:32:22.303Z,81856.00
2019-05-25T08:33:22.486Z,84064.00
2019-05-25T08:34:22.691Z,86848.00
2019-05-25T08:35:22.875Z,86336.00
2019-05-25T08:36:23.954Z,87264.00
2019-05-25T08:37:23.460Z,87520.00
2019-05-25T08:38:23.400Z,85728.00
2019-05-25T08:39:23.579Z,86432.00
2019-05-25T08:40:23.782Z,87776.00
2019-05-25T08:41:23.977Z,89344.00
2019-05-25T08:42:24.168Z,91104.00
2019-05-25T08:43:24.377Z,83872.00
2019-05-25T08:44:24.602Z,86912.00
2019-05-25T08:45:26.083Z,89184.00
2019-05-25T08:46:24.907Z,95360.00
2019-05-25T08:47:24.980Z,96992.00
2019-05-25T08:48:25.200Z,97024.00
2019-05-25T08:49:25.417Z,93600.00
2019-05-25T08:50:37.986Z,94432.00
2019-05-25T08:51:25.586Z,91008.00
2019-05-25T08:52:25.676Z,95360.00
2019-05-25T08:53:39.927Z,97536.00
2019-05-25T08:54:26.169Z,98464.00
2019-05-25T08:55:26.320Z,95232.00
2019-05-25T08:56:26.514Z,92128.00
2019-05-25T08:57:26.520Z,90336.00
2019-05-25T08:58:26.771Z,90592.00
2019-05-25T08:59:26.869Z,94080.00
2019-05-25T09:00:27.185Z,94976.00
2019-05-25T09:01:28.721Z,92352.00
2019-05-25T09:02:27.580Z,91424.00
2019-05-25T09:03:27.984Z,90240.00
2019-05-25T09:04:27.749Z,89408.00
2019-05-25T09:05:27.962Z,87008.00
2019-05-25T09:06:28.223Z,84736.00
2019-05-25T09:07:28.690Z,84768.00
2019-05-25T09:08:28.377Z,84352.00
2019-05-25T09:09:28.555Z,84768.00
2019-05-25T09:10:29.054Z,88256.00
2019-05-25T09:11:28.893Z,90624.00
2019-05-25T09:12:29.190Z,91488.00
2019-05-25T09:13:29.205Z,90976.00
2019-05-25T09:14:29.389Z,91520.00
2019-05-25T09:15:29.589Z,89568.00
2019-05-25T09:16:29.841Z,88896.00
2019-05-25T09:17:30.007Z,87840.00
2019-05-25T09:18:30.232Z,84960.00
2019-05-25T09:19:30.450Z,81152.00
2019-05-25T09:20:30.633Z,83904.00
2019-05-25T09:21:30.812Z,82208.00
2019-05-25T09:22:30.996Z,83168.00
2019-05-25T09:23:31.183Z,82336.00
2019-05-25T09:24:31.394Z,81600.00
2019-05-25T09:25:31.572Z,79168.00
2019-05-25T09:26:31.776Z,78784.00
2019-05-25T09:27:31.962Z,81728.00
2019-05-25T09:28:32.143Z,82112.00
2019-05-25T09:29:32.321Z,82240.00
2019-05-25T09:30:32.909Z,83168.00
2019-05-25T09:31:32.760Z,84032.00
2019-05-25T09:32:33.006Z,81248.00
2019-05-25T09:33:33.211Z,78336.00
2019-05-25T09:34:34.093Z,78976.00
2019-05-25T09:35:34.127Z,78880.00
2019-05-25T09:36:34.260Z,80320.00
2019-05-25T09:37:33.967Z,78240.00
2019-05-25T09:38:34.211Z,77600.00
2019-05-25T09:39:36.031Z,78496.00
2019-05-25T09:40:34.480Z,73760.00
2019-05-25T09:41:34.575Z,75168.00
2019-05-25T09:42:34.799Z,67104.00
2019-05-25T09:43:35.259Z,68256.00
2019-05-25T09:44:35.219Z,67104.00
2019-05-25T09:45:35.665Z,70720.00
2019-05-25T09:46:35.543Z,75296.00
2019-05-25T09:47:36.029Z,71872.00
2019-05-25T09:48:38.239Z,70336.00
2019-05-25T09:49:37.857Z,79680.00
2019-05-25T09:50:36.253Z,78624.00
2019-05-25T09:51:36.765Z,73760.00
2019-05-25T09:52:36.873Z,72320.00
2019-05-25T09:53:37.102Z,69376.00
2019-05-25T09:54:37.461Z,64480.00
2019-05-25T09:55:37.528Z,61408.00
2019-05-25T09:56:37.837Z,65216.00
2019-05-25T09:57:41.376Z,64896.00
2019-05-25T09:58:38.031Z,67648.00
2019-05-25T09:59:38.399Z,68768.00
2019-05-25T10:00:40.308Z,66784.00
2019-05-25T10:01:38.379Z,65984.00
2019-05-25T10:02:38.954Z,66912.00
2019-05-25T10:03:38.870Z,70208.00
2019-05-25T10:04:39.153Z,72384.00
2019-05-25T10:05:39.331Z,72704.00
2019-05-25T10:06:39.426Z,70880.00
2019-05-25T10:07:39.527Z,67136.00
2019-05-25T10:08:39.575Z,65184.00
2019-05-25T10:09:40.304Z,70336.00
2019-05-25T10:10:39.955Z,69696.00
2019-05-25T10:11:40.345Z,66368.00
2019-05-25T10:12:40.628Z,70432.00
2019-05-25T10:13:40.525Z,74304.00
2019-05-25T10:14:41.007Z,74624.00
2019-05-25T10:15:41.178Z,74944.00
2019-05-25T10:16:41.018Z,70784.00
2019-05-25T10:17:41.412Z,76096.00
2019-05-25T10:18:41.639Z,62144.00
2019-05-25T10:19:41.582Z,44960.00
2019-05-25T10:20:41.895Z,42816.00
2019-05-25T10:21:41.978Z,53632.00
2019-05-25T10:22:42.214Z,68032.00
2019-05-25T10:23:42.402Z,73696.00
2019-05-25T10:24:42.383Z,72448.00
2019-05-25T10:25:42.570Z,72448.00
2019-05-25T10:26:42.754Z,66080.00
2019-05-25T10:27:43.217Z,65472.00
2019-05-25T10:28:43.293Z,66240.00
2019-05-25T10:29:43.257Z,63264.00
2019-05-25T10:30:43.715Z,62208.00
2019-05-25T10:31:43.863Z,60416.00
2019-05-25T10:32:43.726Z,60544.00
2019-05-25T10:33:44.017Z,62464.00
2019-05-25T10:34:44.173Z,63136.00
2019-05-25T10:35:44.365Z,63136.00
2019-05-25T10:36:44.749Z,64256.00
2019-05-25T10:37:45.029Z,65952.00
2019-05-25T10:38:44.834Z,63648.00
2019-05-25T10:39:45.012Z,62400.00
2019-05-25T10:40:45.195Z,61568.00
2019-05-25T10:41:45.375Z,60192.00
2019-05-25T10:42:45.721Z,58368.00
2019-05-25T10:43:45.744Z,55584.00
2019-05-25T10:44:45.932Z,56448.00
2019-05-25T10:45:46.117Z,57472.00
2019-05-25T10:46:46.301Z,53984.00
2019-05-25T10:47:46.485Z,54208.00
2019-05-25T10:48:46.675Z,54624.00
2019-05-25T10:49:46.852Z,51360.00
2019-05-25T10:50:47.029Z,51232.00
2019-05-25T10:51:47.209Z,49184.00
2019-05-25T10:52:47.390Z,37152.00
2019-05-25T10:53:47.635Z,27360.00
2019-05-25T10:54:47.767Z,24128.00
2019-05-25T10:55:47.899Z,22208.00
2019-05-25T10:56:48.157Z,20192.00
2019-05-25T10:57:48.202Z,19488.00
2019-05-25T10:58:48.397Z,19808.00
2019-05-25T10:59:52.748Z,19584.00
2019-05-25T11:00:48.889Z,18432.00
2019-05-25T11:01:48.991Z,18432.00
2019-05-25T11:02:49.194Z,18272.00
2019-05-25T11:03:49.391Z,17632.00
2019-05-25T11:04:49.625Z,17216.00
2019-05-25T11:05:49.847Z,17120.00
2019-05-25T11:06:50.058Z,17152.00
2019-05-25T11:07:50.234Z,18112.00
2019-05-25T11:08:50.446Z,18528.00
2019-05-25T11:09:50.664Z,17632.00
2019-05-25T11:10:50.846Z,17664.00
2019-05-25T11:11:51.034Z,17664.00
2019-05-25T11:12:51.222Z,18336.00
2019-05-25T11:13:51.406Z,22208.00
2019-05-25T11:14:51.583Z,23392.00
2019-05-25T11:15:51.764Z,19744.00
2019-05-25T11:16:51.948Z,18976.00
2019-05-25T11:17:52.191Z,19008.00
2019-05-25T11:18:52.258Z,19072.00
2019-05-25T11:19:52.458Z,19488.00
2019-05-25T11:20:52.649Z,19104.00
2019-05-25T11:21:52.945Z,18368.00
2019-05-25T11:22:53.089Z,18816.00
2019-05-25T11:23:53.296Z,19872.00
2019-05-25T11:24:53.835Z,20192.00
2019-05-25T11:25:53.653Z,20352.00
2019-05-25T11:26:54.065Z,19680.00
2019-05-25T11:27:54.066Z,19392.00
2019-05-25T11:28:54.241Z,18528.00
2019-05-25T11:30:07.850Z,15776.00
2019-05-25T11:30:55.118Z,12700.00
2019-05-25T11:31:59.242Z,11960.00
2019-05-25T11:32:54.990Z,11772.00
2019-05-25T11:33:55.195Z,11744.00
2019-05-25T11:34:55.376Z,11624.00
2019-05-25T11:35:55.563Z,11488.00
2019-05-25T11:36:55.748Z,11228.00
2019-05-25T11:37:55.925Z,11040.00
2019-05-25T11:38:56.117Z,10764.00
2019-05-25T11:39:56.296Z,10432.00
2019-05-25T11:40:56.473Z,10024.00
2019-05-25T11:41:56.664Z,9544.00
2019-05-25T11:42:56.887Z,9092.00
2019-05-25T11:43:57.063Z,8456.00
2019-05-25T11:44:57.277Z,7868.00
2019-05-25T11:45:57.436Z,7284.00
2019-05-25T11:46:57.552Z,6680.00
2019-05-25T11:47:58.020Z,6096.00
2019-05-25T11:48:58.024Z,5600.00
2019-05-25T11:49:58.243Z,5012.00
2019-05-25T11:50:58.443Z,4416.00
2019-05-25T11:51:58.424Z,3964.00
2019-05-25T11:52:58.884Z,3808.00
2019-05-25T11:53:58.829Z,3800.00
2019-05-25T11:54:59.006Z,3824.00
2019-05-25T11:55:59.205Z,3816.00
2019-05-25T11:56:59.383Z,3808.00
2019-05-25T11:57:59.562Z,3748.00
2019-05-25T11:58:59.735Z,3688.00
2019-05-25T11:59:59.992Z,3612.00
2019-05-25T12:01:00.250Z,3632.00
2019-05-25T12:02:00.252Z,3688.00
2019-05-25T12:03:00.422Z,3680.00
2019-05-25T12:04:00.626Z,3672.00
2019-05-25T12:05:01.071Z,3620.00
2019-05-25T12:06:01.078Z,3560.00
2019-05-25T12:07:01.173Z,3476.00
2019-05-25T12:08:01.339Z,3392.00
2019-05-25T12:09:01.512Z,3328.00
2019-05-25T12:10:01.704Z,3292.00
2019-05-25T12:11:01.904Z,3284.00
2019-05-25T12:12:02.083Z,3312.00
2019-05-25T12:13:02.275Z,3416.00
2019-05-25T12:14:02.493Z,3556.00
2019-05-25T12:15:02.756Z,3568.00
2019-05-25T12:16:03.183Z,3212.00
2019-05-25T12:17:03.038Z,3056.00
2019-05-25T12:18:03.841Z,3040.00